YHZ weather

Halifax / Stanfield International Airport
Halifax, Nova Scotia, Canada

Public forecast

Using degrees Celsius for public forecast. Weather courtesy of forecast.io.

Current aviation weather report (METAR) for Halifax / Stanfield International Airport

Retrieved 2019/10/19 01:00 UTC (39 minutes ago):

CYHZ 190100Z 25009KT 15SM BKN029 BKN042 07/05 A2958 RMK SC5SC2 SLP020

Aviation forecast (TAF) for Halifax / Stanfield International Airport

Retrieved 2019-10-19 03:39 UTC (0 seconds ago):

TAF TAF CYHZ 190238Z 1903/1924 24008KT P6SM OVC025 TEMPO 1903/1906 P6SM -SHRA SCT008 OVC015 BECMG 1903/1905 28008KT FM190600 28008KT 6SM -SHRA BR BKN008 OVC015 FM191300 30012KT P6SM OVC012 FM191500 30012G22KT P6SM BKN030 BECMG 1922/1924 30008KT RMK NXT FCST BY 190600Z